Goio-Ere, Brazil
Current Conditions -  °F | °C
As of 12:00 PM on Sunday 21 Dec 2014 (Local Time) from SBMG Reporting Station
Broken Clouds Broken Clouds  
Wind Chill: 81°   Ceiling: 8000
Heat Index: 85°   Visibility: 6mi
Dew Point: 72°   Wind: 16mph
Humidity: 74%   Direction: 340°NNW
Pressure: 29.85"   Gusts: 28mph
Location:  24.18°S, 53.03°W
Report Text: SBMG 211400Z 34014G24KT 9999 FEW013 BKN080 27/22 Q1011
Loading
Personal Weather Stations






























Interactive Weather Map New forecast layout! Learn more

10-Day Weather Forecast

Advertisements
Track Severe Weather on mobile